Current Conditions
Mostly Clear
Conditions



Pressure
1019.92 (hPa) - 30.12 (inHG)
Visibility

10.0 (km) - 6.2 (miles)
Temperature
22  °C
Temperature
9  °C
Dewpoint
44  %
 Humidity
Wind Speed
13  km/h
7  kts
8  mph
3.6  m/s
Wind Direction
N
45°
E
90°
135°
S
180°
225°
W
270°
315°
 150°

South South
East
Airport Data
LELN
León Airport
Metar :LELN 191130Z 15007KT 100V210 CAVOK 22/09 Q1020
Thu 19th May 13:30 pm
Raw Metar Info
Raw METAR is the most common format in the world for the transmission of observational weather data. It is highly standardized through the International Civil Aviation Organization (ICAO), which allows it to be understood throughout most of the world.
API Info
Data Provided by
https://www.checkwx.com/weather/LELN

Aviation Weather providing METAR, TAF, AIRMET, SIGMET and OUTLOOK Weather Reports
© Info
CSS/SVG/PHP scripts were developed by weather34 for use in the weather34 template © 2015-2022

Guide Info provided by Metar-Wikipedia